Time;durP1;ratioP1;P1;durP2;ratioP2;P2;SDS_P1;SDS_P2;PMS_P1;PMS_P2;Temp;Humidity;BMP_temperature;BMP_pressure;BME280_temperature;BME280_humidity;BME280_pressure;Samples;Min_cycle;Max_cycle;Signal;HPM_P1;HPM_P2
2023/08/19 00:01:04;;;;;;;12.18;7.65;;;23.80;48.00;;;;;;5013360;28;20385;-72
2023/08/19 00:03:30;;;;;;;11.32;8.07;;;23.70;48.00;;;;;;5013670;28;20579;-72
2023/08/19 00:05:55;;;;;;;12.48;7.50;;;23.70;48.30;;;;;;5013328;28;21047;-70
2023/08/19 00:08:21;;;;;;;10.07;7.43;;;23.70;47.90;;;;;;5012837;28;20393;-71
2023/08/19 00:10:47;;;;;;;12.70;7.83;;;23.70;47.50;;;;;;5013112;28;20877;-72
2023/08/19 00:13:13;;;;;;;10.90;6.60;;;23.80;47.30;;;;;;5013666;28;20468;-72
2023/08/19 00:15:38;;;;;;;10.75;7.18;;;23.70;47.80;;;;;;5013540;28;20393;-73
2023/08/19 00:18:04;;;;;;;8.80;6.83;;;23.70;47.50;;;;;;5012903;28;20747;-72
2023/08/19 00:20:30;;;;;;;11.45;7.00;;;23.70;46.80;;;;;;5013213;28;20392;-71
2023/08/19 00:22:56;;;;;;;9.27;6.72;;;23.70;46.50;;;;;;5012972;28;20767;-72
2023/08/19 00:25:22;;;;;;;12.27;7.20;;;23.70;46.30;;;;;;5013362;28;20416;-74
2023/08/19 00:27:48;;;;;;;12.68;8.88;;;23.70;46.40;;;;;;5013090;28;20377;-74
2023/08/19 00:30:13;;;;;;;15.80;8.60;;;23.70;46.90;;;;;;5013071;28;20392;-75
2023/08/19 00:32:40;;;;;;;10.10;7.55;;;23.70;46.50;;;;;;5013306;28;20388;-74
2023/08/19 00:35:06;;;;;;;10.80;7.43;;;23.60;46.70;;;;;;5012792;28;20392;-74
2023/08/19 00:37:32;;;;;;;11.63;7.40;;;23.70;46.50;;;;;;5013022;28;20389;-74
2023/08/19 00:39:58;;;;;;;11.18;6.90;;;23.60;46.50;;;;;;5012379;28;20468;-75
2023/08/19 00:42:24;;;;;;;8.95;6.72;;;23.60;46.70;;;;;;5012586;28;20424;-74
2023/08/19 00:44:49;;;;;;;10.18;7.05;;;23.60;46.40;;;;;;5012823;28;20384;-74
2023/08/19 00:47:15;;;;;;;11.97;7.23;;;23.70;45.50;;;;;;5012665;28;20451;-74
2023/08/19 00:49:42;;;;;;;11.48;6.75;;;23.70;45.70;;;;;;5012726;28;20389;-75
2023/08/19 00:52:08;;;;;;;8.45;6.13;;;23.70;45.80;;;;;;5011719;28;20581;-75
2023/08/19 00:54:33;;;;;;;10.30;6.60;;;23.70;46.00;;;;;;5012926;28;20464;-75
2023/08/19 00:57:00;;;;;;;11.02;7.13;;;23.60;46.00;;;;;;5010530;28;20449;-75
2023/08/19 00:59:26;;;;;;;12.20;6.90;;;23.60;46.20;;;;;;5011848;28;20400;-75
2023/08/19 01:01:52;;;;;;;9.88;6.43;;;23.50;46.80;;;;;;5010800;28;20415;-75
2023/08/19 01:04:18;;;;;;;14.43;10.40;;;23.30;47.20;;;;;;5009343;28;20393;-75
2023/08/19 01:07:21;;;;;;;16.92;11.05;;;23.30;48.60;;;;;;5012315;28;20961;-75
2023/08/19 01:09:56;;;;;;;17.92;11.00;;;23.10;49.30;;;;;;4997398;28;20748;-73
2023/08/19 01:12:44;;;;;;;11.80;8.65;;;23.10;50.00;;;;;;4993078;28;20386;-74
2023/08/19 01:15:18;;;;;;;11.68;8.10;;;22.90;50.90;;;;;;4998933;28;20412;-73
2023/08/19 01:17:45;;;;;;;13.57;7.37;;;22.90;51.00;;;;;;4994800;28;20415;-72
2023/08/19 01:20:13;;;;;;;11.38;7.00;;;22.80;51.30;;;;;;5012523;28;20404;-73
2023/08/19 01:22:57;;;;;;;10.15;7.40;;;22.80;51.50;;;;;;5011605;28;20405;-73
2023/08/19 01:25:24;;;;;;;15.13;7.00;;;22.70;51.80;;;;;;5003265;28;20485;-72
2023/08/19 01:27:50;;;;;;;8.45;6.90;;;22.70;52.10;;;;;;4992572;28;20413;-72
2023/08/19 01:30:16;;;;;;;16.85;7.32;;;22.70;52.30;;;;;;4992733;28;20462;-73
2023/08/19 01:32:43;;;;;;;13.10;7.17;;;22.60;52.40;;;;;;4992743;28;20382;-71
2023/08/19 01:35:09;;;;;;;10.55;6.70;;;22.50;52.60;;;;;;4992566;28;20406;-71
2023/08/19 01:37:55;;;;;;;10.77;5.90;;;22.60;52.30;;;;;;4993090;28;20409;-72
2023/08/19 01:40:22;;;;;;;10.55;6.80;;;22.60;51.90;;;;;;4993522;28;20716;-72
2023/08/19 01:42:49;;;;;;;13.20;6.82;;;22.60;51.50;;;;;;4976931;28;20410;-74
2023/08/19 01:45:16;;;;;;;10.85;6.28;;;22.60;51.00;;;;;;4992872;28;20732;-73
2023/08/19 01:47:44;;;;;;;11.05;6.45;;;22.60;51.00;;;;;;4992303;28;20397;-73
2023/08/19 01:50:10;;;;;;;12.88;6.47;;;22.60;50.90;;;;;;4991905;28;20494;-71
2023/08/19 01:52:36;;;;;;;11.13;6.15;;;22.60;50.40;;;;;;4991448;28;20756;-72
2023/08/19 01:55:02;;;;;;;8.15;6.25;;;22.60;50.30;;;;;;4995542;28;20867;-72
2023/08/19 01:57:28;;;;;;;9.23;6.22;;;22.60;50.10;;;;;;4992740;28;20390;-70
2023/08/19 01:59:54;;;;;;;8.73;6.60;;;22.50;51.10;;;;;;4991908;28;20394;-71
2023/08/19 02:02:21;;;;;;;10.95;6.50;;;22.40;51.20;;;;;;4991873;28;20406;-72
2023/08/19 02:04:46;;;;;;;11.03;5.87;;;22.40;52.20;;;;;;4991552;28;20389;-73
2023/08/19 02:07:12;;;;;;;12.30;6.65;;;22.30;52.50;;;;;;4991686;28;20396;-72
2023/08/19 02:09:38;;;;;;;10.83;6.80;;;22.30;53.40;;;;;;4991420;28;20872;-73
2023/08/19 02:12:04;;;;;;;13.73;6.70;;;22.20;53.10;;;;;;4975674;28;20448;-73
2023/08/19 02:14:30;;;;;;;8.73;6.80;;;22.20;53.00;;;;;;4987487;28;20425;-74
2023/08/19 02:16:55;;;;;;;11.47;7.10;;;22.20;53.20;;;;;;5001403;28;20395;-74
2023/08/19 02:19:21;;;;;;;10.95;6.93;;;22.20;53.10;;;;;;4978482;28;20394;-75
2023/08/19 02:21:46;;;;;;;13.17;6.40;;;22.10;54.00;;;;;;4994749;28;20398;-73
2023/08/19 02:24:12;;;;;;;11.00;6.40;;;22.20;53.70;;;;;;4993377;28;20389;-71
2023/08/19 02:26:37;;;;;;;10.20;6.17;;;22.20;53.20;;;;;;5000452;28;20450;-72
2023/08/19 02:29:03;;;;;;;14.45;6.00;;;22.30;53.10;;;;;;5003558;28;20400;-73
2023/08/19 02:31:29;;;;;;;12.13;6.68;;;22.30;53.00;;;;;;4993305;28;20445;-73
2023/08/19 02:33:55;;;;;;;9.23;6.00;;;22.20;53.00;;;;;;5010741;28;20934;-72
2023/08/19 02:36:20;;;;;;;11.82;6.13;;;22.30;52.50;;;;;;5010989;28;20410;-75
2023/08/19 02:38:46;;;;;;;12.03;5.80;;;22.40;51.60;;;;;;5009791;28;20801;-73
2023/08/19 02:41:11;;;;;;;10.30;6.10;;;22.40;51.10;;;;;;5007471;28;20867;-71
2023/08/19 02:43:37;;;;;;;10.83;5.80;;;22.50;50.50;;;;;;5008642;28;20425;-72
2023/08/19 02:46:04;;;;;;;11.13;6.10;;;22.60;49.90;;;;;;5009850;28;20386;-73
2023/08/19 02:48:30;;;;;;;8.38;5.90;;;22.60;49.40;;;;;;5007571;28;20409;-72
2023/08/19 02:50:56;;;;;;;6.63;5.20;;;22.60;49.30;;;;;;5005779;28;20386;-72
2023/08/19 02:53:22;;;;;;;6.90;5.33;;;22.60;48.80;;;;;;5000013;28;20787;-72
2023/08/19 02:55:50;;;;;;;12.50;6.10;;;22.70;48.40;;;;;;5001144;28;20395;-72
2023/08/19 02:58:16;;;;;;;9.90;5.43;;;22.70;48.50;;;;;;4993532;28;20467;-70
2023/08/19 03:00:46;;;;;;;10.57;5.50;;;22.70;48.20;;;;;;4980405;28;20405;-74
2023/08/19 03:03:12;;;;;;;8.02;5.40;;;22.70;48.00;;;;;;5001380;28;20891;-71
2023/08/19 03:05:38;;;;;;;10.60;5.57;;;22.70;47.90;;;;;;4995190;28;20402;-72
2023/08/19 03:08:05;;;;;;;10.55;5.60;;;22.80;47.10;;;;;;4995190;28;20421;-72
2023/08/19 03:10:34;;;;;;;11.43;5.40;;;22.90;46.80;;;;;;4995092;28;20856;-73
2023/08/19 03:13:00;;;;;;;8.88;5.50;;;22.90;46.60;;;;;;4994344;28;20398;-72
2023/08/19 03:15:26;;;;;;;11.50;5.50;;;22.80;46.90;;;;;;4994873;28;20390;-71
2023/08/19 03:17:51;;;;;;;10.15;5.40;;;22.80;46.80;;;;;;4994906;28;20441;-73
2023/08/19 03:20:17;;;;;;;11.55;5.38;;;22.80;47.00;;;;;;4994712;28;20387;-73
2023/08/19 03:22:42;;;;;;;9.07;5.63;;;22.90;46.40;;;;;;4994511;28;20486;-73
2023/08/19 03:25:09;;;;;;;10.55;5.70;;;22.80;47.10;;;;;;4995034;28;20449;-73
2023/08/19 03:27:35;;;;;;;9.07;5.53;;;22.80;46.70;;;;;;4994836;28;20382;-72
2023/08/19 03:30:01;;;;;;;11.17;5.50;;;22.80;46.40;;;;;;4994492;28;20445;-72
2023/08/19 03:32:26;;;;;;;8.10;5.20;;;22.80;46.30;;;;;;4994218;28;20394;-73
2023/08/19 03:34:52;;;;;;;7.93;5.33;;;22.80;46.30;;;;;;4994353;28;20407;-73
2023/08/19 03:37:17;;;;;;;6.68;5.40;;;22.80;46.20;;;;;;4994294;28;20509;-73
2023/08/19 03:39:43;;;;;;;10.80;5.43;;;22.90;45.70;;;;;;4994043;28;20434;-73
2023/08/19 03:42:08;;;;;;;13.40;5.70;;;22.80;46.00;;;;;;4993918;28;20411;-73
2023/08/19 03:44:34;;;;;;;9.50;5.57;;;22.80;46.10;;;;;;4994293;28;20891;-72
2023/08/19 03:46:59;;;;;;;9.47;5.70;;;22.90;46.30;;;;;;4994495;28;20860;-72
2023/08/19 03:49:25;;;;;;;13.95;5.22;;;22.80;46.20;;;;;;4994074;28;20386;-72
2023/08/19 03:51:50;;;;;;;9.80;5.20;;;22.90;45.70;;;;;;4976464;28;20389;-71
2023/08/19 03:54:16;;;;;;;8.55;5.20;;;22.90;45.90;;;;;;4994082;28;20791;-73
2023/08/19 03:56:41;;;;;;;11.80;5.67;;;22.90;45.80;;;;;;4993681;28;20780;-73
2023/08/19 03:59:07;;;;;;;8.27;4.90;;;22.90;45.00;;;;;;4993835;28;20879;-73
2023/08/19 04:01:32;;;;;;;6.90;4.60;;;22.90;45.40;;;;;;4993476;28;20393;-73
2023/08/19 04:03:58;;;;;;;8.60;5.20;;;22.90;44.80;;;;;;4993802;28;20394;-73
2023/08/19 04:06:23;;;;;;;7.65;4.70;;;23.00;44.20;;;;;;4993876;28;20504;-73
2023/08/19 04:08:49;;;;;;;7.30;4.90;;;23.10;44.00;;;;;;4993459;28;20394;-72
2023/08/19 04:11:14;;;;;;;5.70;4.53;;;23.10;44.10;;;;;;4993833;28;20378;-72
2023/08/19 04:13:40;;;;;;;9.13;5.30;;;23.10;43.60;;;;;;4993136;28;20748;-71
2023/08/19 04:16:06;;;;;;;9.85;5.13;;;23.10;43.50;;;;;;4993561;28;20398;-72
2023/08/19 04:18:33;;;;;;;9.02;4.70;;;23.10;43.50;;;;;;4993169;28;20880;-72
2023/08/19 04:21:03;;;;;;;9.02;4.80;;;23.10;43.40;;;;;;4993194;28;20413;-73
2023/08/19 04:23:29;;;;;;;8.10;5.05;;;23.10;43.70;;;;;;4993499;28;20418;-75
2023/08/19 04:25:55;;;;;;;7.20;5.20;;;23.10;43.40;;;;;;4994189;28;20391;-73
2023/08/19 04:28:21;;;;;;;8.95;5.20;;;23.10;43.30;;;;;;4993508;28;20418;-73
2023/08/19 04:30:46;;;;;;;7.38;4.63;;;23.20;43.00;;;;;;4993369;28;20475;-73
2023/08/19 04:33:12;;;;;;;9.57;5.20;;;23.30;42.90;;;;;;4993315;28;20386;-71
2023/08/19 04:35:37;;;;;;;9.15;5.97;;;23.20;42.90;;;;;;4993128;28;20391;-72
2023/08/19 04:38:03;;;;;;;9.37;5.13;;;23.20;43.20;;;;;;4993004;28;20397;-72
2023/08/19 04:40:30;;;;;;;8.73;4.82;;;23.20;43.10;;;;;;4993083;28;20445;-73
2023/08/19 04:42:57;;;;;;;10.80;5.10;;;23.30;42.80;;;;;;4992791;28;20485;-72
2023/08/19 04:45:23;;;;;;;7.07;4.53;;;23.40;42.80;;;;;;4993052;28;20410;-72
2023/08/19 04:47:49;;;;;;;13.60;5.20;;;23.30;43.00;;;;;;4992578;28;20484;-73
2023/08/19 04:50:14;;;;;;;7.88;5.00;;;23.30;43.20;;;;;;4993302;28;20397;-73
2023/08/19 04:52:40;;;;;;;7.18;4.55;;;23.20;43.30;;;;;;4992783;28;20387;-72
2023/08/19 04:55:06;;;;;;;9.93;4.90;;;23.30;42.90;;;;;;4993025;28;20433;-73
2023/08/19 04:57:32;;;;;;;9.20;5.40;;;23.30;42.90;;;;;;4992838;28;20481;-73
2023/08/19 04:59:58;;;;;;;8.30;4.80;;;23.40;42.90;;;;;;4993625;28;20394;-74
2023/08/19 05:02:23;;;;;;;7.00;4.90;;;23.40;43.00;;;;;;4992420;28;20421;-72
2023/08/19 05:04:49;;;;;;;10.18;5.13;;;23.40;43.00;;;;;;4992348;28;20386;-72
2023/08/19 05:07:14;;;;;;;8.90;5.10;;;23.40;43.00;;;;;;4992505;28;20393;-73
2023/08/19 05:09:40;;;;;;;11.80;5.50;;;23.40;43.90;;;;;;4992504;28;20876;-73
2023/08/19 05:12:06;;;;;;;7.87;5.33;;;23.40;43.30;;;;;;4992177;28;20802;-73
2023/08/19 05:14:32;;;;;;;9.83;4.77;;;23.30;43.50;;;;;;4992239;28;20469;-71
2023/08/19 05:16:57;;;;;;;10.57;4.95;;;23.40;43.10;;;;;;4992380;28;20480;-73
2023/08/19 05:19:24;;;;;;;5.97;4.53;;;23.50;42.40;;;;;;4992841;28;20398;-72
2023/08/19 05:21:50;;;;;;;9.43;5.00;;;23.60;42.20;;;;;;4991847;28;20406;-72
2023/08/19 05:24:16;;;;;;;12.32;4.90;;;23.60;42.10;;;;;;4992187;28;20399;-72
2023/08/19 05:26:45;;;;;;;6.57;4.60;;;23.60;42.00;;;;;;4991304;28;20402;-72
2023/08/19 05:29:12;;;;;;;7.00;4.53;;;23.60;42.30;;;;;;4991998;28;20888;-73
2023/08/19 05:31:38;;;;;;;7.72;4.90;;;23.70;41.90;;;;;;4992023;28;20426;-73
2023/08/19 05:34:06;;;;;;;9.10;4.75;;;23.70;42.40;;;;;;4974571;28;20394;-73
2023/08/19 05:36:31;;;;;;;7.40;4.70;;;23.70;41.40;;;;;;4991823;28;20397;-72
2023/08/19 05:38:57;;;;;;;9.95;4.70;;;23.70;41.00;;;;;;4992419;28;20386;-72
2023/08/19 05:41:22;;;;;;;6.13;4.43;;;23.80;40.70;;;;;;4991522;28;20394;-73
2023/08/19 05:43:48;;;;;;;9.90;4.73;;;23.80;40.80;;;;;;4991758;28;20410;-74
2023/08/19 05:46:13;;;;;;;8.27;4.70;;;23.90;40.50;;;;;;4992369;28;20397;-73
2023/08/19 05:48:39;;;;;;;13.07;4.83;;;23.90;40.70;;;;;;4991832;28;20390;-73
2023/08/19 05:51:04;;;;;;;8.90;4.85;;;23.80;40.90;;;;;;4991926;28;20879;-73
2023/08/19 05:53:30;;;;;;;9.30;4.40;;;23.80;40.60;;;;;;4991944;28;20783;-74
2023/08/19 05:55:55;;;;;;;9.73;4.68;;;23.90;40.10;;;;;;4991784;28;20398;-73
2023/08/19 05:58:21;;;;;;;7.73;4.17;;;24.00;39.70;;;;;;4991862;28;20444;-73
2023/08/19 06:00:46;;;;;;;9.70;4.70;;;24.10;39.50;;;;;;4991968;28;20390;-72
2023/08/19 06:03:13;;;;;;;7.05;4.25;;;24.10;39.20;;;;;;4991239;28;20504;-73
2023/08/19 06:05:39;;;;;;;10.55;4.50;;;24.10;39.00;;;;;;4991728;28;20383;-73
2023/08/19 06:08:05;;;;;;;9.13;4.67;;;24.20;39.10;;;;;;4991587;28;20409;-73
2023/08/19 06:10:30;;;;;;;11.40;4.55;;;24.20;39.00;;;;;;4991586;28;20386;-72
2023/08/19 06:12:56;;;;;;;10.43;4.73;;;24.30;38.70;;;;;;4991683;28;20437;-73
2023/08/19 06:15:22;;;;;;;10.23;4.20;;;24.40;38.60;;;;;;4991925;28;20755;-73
2023/08/19 06:17:48;;;;;;;7.82;4.85;;;24.40;38.20;;;;;;4991936;28;20399;-73
2023/08/19 06:20:13;;;;;;;4.75;4.28;;;24.40;38.50;;;;;;4991621;28;20456;-73
2023/08/19 06:22:39;;;;;;;9.30;4.60;;;24.50;38.60;;;;;;4974177;28;20553;-73
2023/08/19 06:25:05;;;;;;;7.65;4.35;;;24.60;38.10;;;;;;4992203;28;20383;-72
2023/08/19 06:27:31;;;;;;;12.60;5.00;;;24.70;38.00;;;;;;4992149;28;20421;-73
2023/08/19 06:29:57;;;;;;;14.73;4.90;;;24.70;37.90;;;;;;4993992;28;20391;-73
2023/08/19 06:32:22;;;;;;;8.07;5.00;;;24.70;38.70;;;;;;4993929;28;20382;-72
2023/08/19 06:34:48;;;;;;;10.05;4.65;;;24.70;38.40;;;;;;4993844;28;20393;-73
2023/08/19 06:37:20;;;;;;;8.50;4.90;;;24.70;38.10;;;;;;4977684;28;20386;-73
2023/08/19 06:39:49;;;;;;;9.97;4.97;;;24.80;38.30;;;;;;4996765;28;20386;-73
2023/08/19 06:42:16;;;;;;;6.45;4.38;;;24.90;38.10;;;;;;4995125;28;20819;-73
2023/08/19 06:44:43;;;;;;;8.65;5.00;;;25.00;38.00;;;;;;4995548;28;20388;-73
2023/08/19 06:47:10;;;;;;;8.50;4.50;;;25.00;38.00;;;;;;4977938;28;20382;-74
2023/08/19 06:49:37;;;;;;;7.68;4.90;;;25.10;37.60;;;;;;4995057;28;20383;-73
2023/08/19 06:52:03;;;;;;;7.22;4.75;;;25.20;37.30;;;;;;4995275;28;20478;-73
2023/08/19 06:54:29;;;;;;;8.98;4.97;;;25.30;37.10;;;;;;4995176;28;20824;-74
2023/08/19 06:57:04;;;;;;;8.75;4.40;;;25.40;36.20;;;;;;4995088;28;20390;-72
2023/08/19 06:59:41;;;;;;;11.65;4.43;;;25.40;36.00;;;;;;4995046;28;20382;-73
2023/08/19 07:02:08;;;;;;;8.30;5.18;;;25.50;35.80;;;;;;4994678;28;20403;-72
2023/08/19 07:04:35;;;;;;;6.65;4.30;;;25.60;35.90;;;;;;4995267;28;20480;-73
2023/08/19 07:07:05;;;;;;;8.50;4.07;;;25.80;35.00;;;;;;4995044;28;20398;-73
2023/08/19 07:09:31;;;;;;;14.73;4.50;;;25.80;34.80;;;;;;4995136;28;20962;-74
2023/08/19 07:11:58;;;;;;;10.98;4.30;;;25.80;34.60;;;;;;4994979;28;20763;-73
2023/08/19 07:14:24;;;;;;;7.07;4.10;;;26.00;34.60;;;;;;4995671;28;20398;-72
2023/08/19 07:16:51;;;;;;;9.50;4.30;;;25.90;34.60;;;;;;4994519;28;20409;-71
2023/08/19 07:19:40;;;;;;;8.77;4.38;;;25.80;35.30;;;;;;4977517;28;20393;-73
2023/08/19 07:22:07;;;;;;;6.03;4.30;;;25.80;34.80;;;;;;4993295;28;20584;-74
2023/08/19 07:24:33;;;;;;;10.80;4.10;;;25.90;34.50;;;;;;4994747;28;20397;-73
2023/08/19 07:27:02;;;;;;;6.60;4.30;;;26.00;34.60;;;;;;4994314;28;20387;-72
2023/08/19 07:29:28;;;;;;;8.57;4.38;;;26.10;33.80;;;;;;4994565;28;20791;-72
2023/08/19 07:31:53;;;;;;;6.55;4.43;;;26.30;33.10;;;;;;4976836;28;20410;-73
2023/08/19 07:34:19;;;;;;;5.88;4.20;;;26.40;32.70;;;;;;4994453;28;20470;-73
2023/08/19 07:36:45;;;;;;;5.73;3.77;;;26.60;32.20;;;;;;4994712;28;20409;-73
2023/08/19 07:39:10;;;;;;;9.13;4.20;;;26.60;32.30;;;;;;4994566;28;20397;-72
2023/08/19 07:41:36;;;;;;;6.60;3.72;;;26.70;31.50;;;;;;4994271;28;20391;-74
2023/08/19 07:44:02;;;;;;;6.05;3.70;;;26.80;31.50;;;;;;4994296;28;20481;-73
2023/08/19 07:46:28;;;;;;;10.13;4.63;;;27.00;31.30;;;;;;4994432;28;20394;-73
2023/08/19 07:48:54;;;;;;;5.40;4.22;;;27.10;31.00;;;;;;4993218;28;20423;-73
2023/08/19 07:51:20;;;;;;;11.73;4.10;;;27.20;31.30;;;;;;4993801;28;20410;-73
2023/08/19 07:53:46;;;;;;;9.77;4.03;;;27.20;30.90;;;;;;4993684;28;20387;-72
2023/08/19 07:56:12;;;;;;;9.77;4.90;;;27.30;31.30;;;;;;4994008;28;20879;-72
2023/08/19 07:58:38;;;;;;;9.05;4.82;;;27.30;31.10;;;;;;4993657;28;20767;-73
2023/08/19 08:01:03;;;;;;;8.85;4.40;;;27.40;30.30;;;;;;4994150;28;20386;-72
2023/08/19 08:03:29;;;;;;;6.63;4.60;;;27.40;30.20;;;;;;4997030;28;20402;-72
2023/08/19 08:05:55;;;;;;;6.88;4.30;;;27.50;30.20;;;;;;5001333;28;20387;-73
2023/08/19 08:08:20;;;;;;;11.40;4.20;;;27.60;29.80;;;;;;5006179;28;20450;-73
2023/08/19 08:10:46;;;;;;;7.03;4.10;;;27.80;29.50;;;;;;5002953;28;20544;-73
2023/08/19 08:13:11;;;;;;;10.80;4.60;;;27.80;29.30;;;;;;4993433;28;20395;-73
2023/08/19 08:15:37;;;;;;;8.40;4.63;;;28.00;28.90;;;;;;4993431;28;20395;-74
2023/08/19 08:18:03;;;;;;;8.10;3.87;;;28.10;28.50;;;;;;4993304;28;20437;-73
2023/08/19 08:20:29;;;;;;;10.05;4.63;;;28.10;29.10;;;;;;4993501;28;20937;-73
2023/08/19 08:22:55;;;;;;;10.50;4.07;;;28.00;28.60;;;;;;4993855;28;20497;-74
2023/08/19 08:25:20;;;;;;;7.20;3.80;;;27.70;29.30;;;;;;4993557;28;20471;-73
2023/08/19 08:27:46;;;;;;;6.70;4.30;;;27.90;28.60;;;;;;4975773;28;20771;-74
2023/08/19 08:30:11;;;;;;;7.97;3.90;;;28.00;29.10;;;;;;4975960;28;20867;-73
2023/08/19 08:32:37;;;;;;;6.32;3.90;;;28.20;27.90;;;;;;4993191;28;20468;-73
2023/08/19 08:35:03;;;;;;;12.73;4.80;;;28.20;27.70;;;;;;4993227;28;20425;-74
2023/08/19 08:37:29;;;;;;;9.77;4.50;;;28.40;27.20;;;;;;4976189;28;20415;-73
2023/08/19 08:39:54;;;;;;;6.83;4.20;;;28.50;27.30;;;;;;4993439;28;20799;-73
2023/08/19 08:42:22;;;;;;;6.72;3.97;;;28.40;27.10;;;;;;4992840;28;20461;-74
2023/08/19 08:44:50;;;;;;;5.30;3.80;;;28.50;26.60;;;;;;4993349;28;20386;-74
2023/08/19 08:47:16;;;;;;;8.65;4.13;;;28.60;26.80;;;;;;4993015;28;20770;-73
2023/08/19 08:49:44;;;;;;;10.07;4.50;;;28.80;25.90;;;;;;4992715;28;20383;-72
2023/08/19 08:52:10;;;;;;;7.00;3.87;;;28.90;25.20;;;;;;4992464;28;20378;-73
2023/08/19 08:54:37;;;;;;;7.07;4.30;;;28.90;25.80;;;;;;4992523;28;20393;-74
2023/08/19 08:57:03;;;;;;;7.57;4.50;;;29.30;25.20;;;;;;4992623;28;20386;-72
2023/08/19 08:59:29;;;;;;;7.40;4.20;;;29.40;25.40;;;;;;4992605;28;20440;-73
2023/08/19 09:01:59;;;;;;;7.13;4.32;;;29.60;24.90;;;;;;4991634;28;20872;-72
2023/08/19 09:04:28;;;;;;;7.20;4.53;;;29.90;24.00;;;;;;4992747;28;20462;-73
2023/08/19 09:07:00;;;;;;;10.98;4.25;;;29.90;23.20;;;;;;4977800;28;20391;-74
2023/08/19 09:09:29;;;;;;;16.95;14.18;;;30.10;23.90;;;;;;4995086;28;20436;-73
2023/08/19 09:11:55;;;;;;;7.63;4.90;;;30.00;24.20;;;;;;4994212;28;20439;-73
2023/08/19 09:14:40;;;;;;;11.48;6.38;;;30.10;23.00;;;;;;4992886;28;20821;-73
2023/08/19 09:19:41;;;;;;;7.95;4.03;;;30.10;23.10;;;;;;5032375;28;20423;-74
2023/08/19 09:22:15;;;;;;;7.90;4.87;;;30.10;23.40;;;;;;5033849;28;20421;-76
2023/08/19 09:24:42;;;;;;;8.63;4.30;;;30.10;22.60;;;;;;5034034;28;20386;-76
2023/08/19 09:27:07;;;;;;;9.00;4.23;;;30.20;22.10;;;;;;5039889;28;20717;-76
2023/08/19 09:29:33;;;;;;;8.60;4.65;;;30.30;22.10;;;;;;5035879;28;20382;-75
2023/08/19 09:31:59;;;;;;;11.13;5.07;;;30.30;21.80;;;;;;5035226;28;20387;-75
2023/08/19 09:34:25;;;;;;;7.73;4.57;;;30.40;22.40;;;;;;5034270;28;20417;-76
2023/08/19 09:36:58;;;;;;;6.18;4.65;;;30.50;21.90;;;;;;5033720;28;20382;-76
2023/08/19 09:39:32;;;;;;;8.98;5.13;;;30.60;21.90;;;;;;5034350;28;20501;-76
2023/08/19 09:41:58;;;;;;;7.90;5.03;;;30.60;21.50;;;;;;5033697;28;20942;-76
2023/08/19 09:44:27;;;;;;;9.03;4.50;;;30.90;20.70;;;;;;5035350;28;20387;-76
2023/08/19 09:46:54;;;;;;;6.97;4.10;;;31.10;21.00;;;;;;5034297;28;20386;-76
2023/08/19 09:49:21;;;;;;;8.43;4.75;;;31.30;20.10;;;;;;5020205;28;20387;-75
2023/08/19 09:51:55;;;;;;;9.88;4.80;;;31.50;19.50;;;;;;5033270;28;20383;-76
2023/08/19 09:54:21;;;;;;;8.30;4.30;;;31.50;19.90;;;;;;5031326;28;20375;-76
2023/08/19 09:56:55;;;;;;;8.40;5.20;;;31.40;20.80;;;;;;5032548;28;20386;-75
2023/08/19 09:59:21;;;;;;;7.97;4.65;;;31.50;19.90;;;;;;5031601;28;20410;-75
2023/08/19 10:01:48;;;;;;;14.38;5.03;;;31.60;19.70;;;;;;5031315;28;20426;-76
2023/08/19 10:04:14;;;;;;;10.38;4.70;;;31.90;19.20;;;;;;5031456;28;20383;-75
2023/08/19 10:06:45;;;;;;;9.43;4.43;;;31.80;19.20;;;;;;5031480;28;20871;-75
2023/08/19 10:09:13;;;;;;;9.80;5.22;;;32.00;18.90;;;;;;5030915;28;20383;-76
2023/08/19 10:11:43;;;;;;;9.13;5.88;;;32.40;18.20;;;;;;5030778;28;20521;-75
2023/08/19 10:14:10;;;;;;;14.25;6.40;;;32.40;18.30;;;;;;5013747;28;20415;-74
2023/08/19 10:16:43;;;;;;;10.87;6.60;;;32.60;17.80;;;;;;5031441;28;20805;-75
2023/08/19 10:19:11;;;;;;;11.75;4.72;;;33.10;18.30;;;;;;5031557;28;20391;-76
2023/08/19 10:21:39;;;;;;;8.80;4.32;;;33.20;17.40;;;;;;5031087;28;20383;-75
2023/08/19 10:24:05;;;;;;;6.60;4.87;;;33.00;17.50;;;;;;5031632;28;20390;-76
2023/08/19 10:26:32;;;;;;;8.50;4.90;;;32.90;17.50;;;;;;5031327;28;20839;-75
2023/08/19 10:29:05;;;;;;;10.38;5.78;;;33.20;17.20;;;;;;5032258;28;20791;-74
2023/08/19 10:31:32;;;;;;;7.18;5.10;;;33.40;16.60;;;;;;5031623;28;20888;-74
2023/08/19 10:33:58;;;;;;;11.20;5.68;;;33.40;16.00;;;;;;5031729;28;20422;-76
2023/08/19 10:36:30;;;;;;;8.10;5.67;;;32.90;17.10;;;;;;5032363;28;20399;-75
2023/08/19 10:38:58;;;;;;;8.63;6.70;;;32.60;18.80;;;;;;5026390;28;20465;-75
2023/08/19 10:41:36;;;;;;;10.50;6.20;;;32.40;19.90;;;;;;5019052;28;20414;-75
2023/08/19 10:44:04;;;;;;;8.60;5.95;;;32.50;19.20;;;;;;5030780;28;20466;-75
2023/08/19 10:46:34;;;;;;;12.45;6.80;;;32.40;19.00;;;;;;5031641;28;20398;-75
2023/08/19 10:49:05;;;;;;;10.57;6.70;;;32.50;18.60;;;;;;5032338;28;20397;-74
2023/08/19 10:51:51;;;;;;;7.60;5.53;;;32.50;18.80;;;;;;5012302;28;20399;-75
2023/08/19 10:54:43;;;;;;;9.38;5.72;;;32.40;18.60;;;;;;5032076;28;20395;-75
2023/08/19 10:57:17;;;;;;;10.55;6.00;;;32.50;19.30;;;;;;5016755;28;20404;-75
2023/08/19 10:59:45;;;;;;;9.20;5.90;;;32.20;19.60;;;;;;5015986;28;20389;-76
2023/08/19 11:02:11;;;;;;;7.40;5.93;;;32.00;20.10;;;;;;5014831;28;20424;-75
2023/08/19 11:04:47;;;;;;;9.32;6.55;;;31.80;20.00;;;;;;5030330;28;20491;-75
2023/08/19 11:07:13;;;;;;;9.82;6.68;;;31.60;21.60;;;;;;5026369;28;20387;-75
2023/08/19 11:09:41;;;;;;;13.50;7.07;;;31.40;23.40;;;;;;5027615;28;20475;-75
2023/08/19 11:12:07;;;;;;;9.07;7.10;;;31.00;24.00;;;;;;5026657;28;20874;-74
2023/08/19 11:14:33;;;;;;;12.85;6.85;;;30.80;24.90;;;;;;5036926;28;20416;-74
2023/08/19 11:16:58;;;;;;;18.03;7.80;;;30.60;25.80;;;;;;5013682;28;20393;-75
2023/08/19 11:19:25;;;;;;;11.75;7.40;;;30.20;28.20;;;;;;5034689;28;20451;-75
2023/08/19 11:21:50;;;;;;;13.32;7.85;;;30.30;27.60;;;;;;5041617;28;20421;-74
2023/08/19 11:24:16;;;;;;;12.20;8.00;;;30.20;28.30;;;;;;5046244;28;20391;-74
2023/08/19 11:26:43;;;;;;;13.77;7.50;;;30.40;27.30;;;;;;5039695;28;20710;-75
2023/08/19 11:29:10;;;;;;;15.60;8.07;;;30.50;26.50;;;;;;5041930;28;20395;-75
2023/08/19 11:31:40;;;;;;;11.30;8.15;;;30.60;26.20;;;;;;5040656;28;20399;-73
2023/08/19 11:34:11;;;;;;;11.38;7.60;;;30.80;25.30;;;;;;5032163;28;20529;-75
2023/08/19 11:36:38;;;;;;;14.00;8.23;;;31.00;24.70;;;;;;5018017;28;20913;-74
2023/08/19 11:39:05;;;;;;;10.75;7.78;;;31.00;24.80;;;;;;5025315;28;20460;-74
2023/08/19 11:41:32;;;;;;;11.25;8.02;;;30.80;25.30;;;;;;5030876;28;20963;-74
2023/08/19 11:43:58;;;;;;;12.95;8.13;;;31.00;26.70;;;;;;5031322;28;20915;-74
2023/08/19 11:46:30;;;;;;;12.02;8.32;;;30.90;25.50;;;;;;5032708;28;20386;-74
2023/08/19 11:49:04;;;;;;;17.42;8.75;;;30.60;26.60;;;;;;5031174;28;20436;-75
2023/08/19 11:51:29;;;;;;;14.38;8.57;;;30.50;27.00;;;;;;5030927;28;20449;-75
2023/08/19 11:54:02;;;;;;;20.13;9.00;;;30.60;26.90;;;;;;5031265;28;20383;-74
2023/08/19 11:56:28;;;;;;;16.40;9.55;;;30.90;26.00;;;;;;5011050;28;20406;-77
2023/08/19 11:58:54;;;;;;;13.67;9.70;;;30.80;25.90;;;;;;5014690;28;20426;-75
2023/08/19 12:01:24;;;;;;;14.70;9.50;;;30.60;26.30;;;;;;5033384;28;20430;-75
2023/08/19 12:03:51;;;;;;;16.38;9.90;;;30.30;27.50;;;;;;5031376;28;20422;-76
2023/08/19 12:06:17;;;;;;;14.13;9.77;;;30.20;28.00;;;;;;5023164;28;20920;-76
2023/08/19 12:08:45;;;;;;;17.42;10.32;;;30.00;28.90;;;;;;5013728;28;20399;-76
2023/08/19 12:11:12;;;;;;;14.20;10.43;;;29.70;29.70;;;;;;5032140;28;20390;-76
2023/08/19 12:13:38;;;;;;;13.05;10.07;;;29.60;30.20;;;;;;5033093;28;20383;-74
2023/08/19 12:16:06;;;;;;;20.20;11.35;;;29.50;30.50;;;;;;5032819;28;20383;-73
2023/08/19 12:18:34;;;;;;;27.30;11.97;;;29.50;30.90;;;;;;5032533;28;20407;-76
2023/08/19 12:21:02;;;;;;;17.27;10.80;;;29.60;31.30;;;;;;5032316;28;20391;-76
2023/08/19 12:23:28;;;;;;;15.45;10.48;;;29.60;31.50;;;;;;5033127;28;20407;-75
2023/08/19 12:25:56;;;;;;;13.05;9.90;;;29.80;31.30;;;;;;5033320;28;20371;-74
2023/08/19 12:28:23;;;;;;;13.50;10.40;;;30.10;30.30;;;;;;5030972;28;20521;-75
2023/08/19 12:30:49;;;;;;;16.43;10.20;;;30.10;29.50;;;;;;5013359;28;20878;-74
2023/08/19 12:33:16;;;;;;;17.75;10.48;;;30.10;29.60;;;;;;5024429;28;20413;-76
2023/08/19 12:36:30;;;;;;;13.45;10.05;;;30.20;28.70;;;;;;5042520;28;20387;-75
2023/08/19 12:38:55;;;;;;;12.60;9.18;;;30.20;28.60;;;;;;5031883;28;20427;-73
2023/08/19 12:41:21;;;;;;;13.30;9.63;;;29.90;29.10;;;;;;5031340;28;20417;-74
2023/08/19 12:43:47;;;;;;;14.88;10.00;;;29.90;29.30;;;;;;5032010;28;20410;-75